Time;durP1;ratioP1;P1;durP2;ratioP2;P2;SDS_P1;SDS_P2;PMS_P1;PMS_P2;Temp;Humidity;BMP_temperature;BMP_pressure;BME280_temperature;BME280_humidity;BME280_pressure;Samples;Min_cycle;Max_cycle;Signal;HPM_P1;HPM_P2
2022/07/09 00:01:25;;;;;;;55.67;52.75;;;;;;;26.90;37.74;102746.31;4955267;29;20388;-77
2022/07/09 00:03:54;;;;;;;53.67;50.95;;;;;;;26.88;37.92;102742.22;4957673;28;20388;-77
2022/07/09 00:06:20;;;;;;;53.78;50.78;;;;;;;26.84;37.92;102742.00;4956638;28;20514;-77
2022/07/09 00:08:45;;;;;;;57.17;53.92;;;;;;;26.83;37.76;102745.06;4957005;28;20055;-76
2022/07/09 00:11:11;;;;;;;54.60;51.67;;;;;;;26.79;37.53;102738.50;4958317;28;20597;-76
2022/07/09 00:13:36;;;;;;;53.22;50.22;;;;;;;26.75;37.66;102739.09;4976142;28;20035;-75
2022/07/09 00:16:02;;;;;;;54.35;51.38;;;;;;;26.72;37.87;102734.16;4963884;28;20031;-77
2022/07/09 00:18:27;;;;;;;55.80;52.80;;;;;;;26.69;38.14;102731.19;4979992;28;20070;-78
2022/07/09 00:20:56;;;;;;;55.00;51.90;;;;;;;26.68;37.88;102732.31;4958752;29;20059;-76
2022/07/09 00:23:21;;;;;;;;;;;;;;;26.62;37.55;102737.13;4975994;28;20058;-77
2022/07/09 00:25:47;;;;;;;54.03;50.70;;;;;;;26.59;37.91;102740.50;4961414;28;20377;-77
2022/07/09 00:28:12;;;;;;;54.50;51.70;;;;;;;26.57;37.65;102739.16;4958171;28;20038;-77
2022/07/09 00:30:38;;;;;;;54.30;51.33;;;;;;;26.53;38.07;102737.00;4957325;28;20031;-77
2022/07/09 00:33:03;;;;;;;55.70;52.50;;;;;;;26.51;37.89;102742.00;4973040;28;20039;-76
2022/07/09 00:35:29;;;;;;;54.15;51.30;;;;;;;26.48;37.75;102741.75;4956747;29;20058;-77
2022/07/09 00:37:54;;;;;;;56.88;53.92;;;;;;;26.46;38.04;102736.53;4958985;28;20031;-76
2022/07/09 00:40:19;;;;;;;55.40;52.08;;;;;;;26.43;37.71;102737.13;4960090;29;20126;-76
2022/07/09 00:42:45;;;;;;;55.28;52.25;;;;;;;26.40;37.95;102731.38;4959964;28;20035;-76
2022/07/09 00:45:10;;;;;;;56.65;53.33;;;;;;;26.37;37.77;102732.00;4973363;28;20089;-77
2022/07/09 00:47:35;;;;;;;53.20;50.20;;;;;;;26.34;38.02;102733.41;4957270;28;20439;-76
2022/07/09 00:50:01;;;;;;;54.90;51.95;;;;;;;26.30;37.84;102727.63;4956937;28;20024;-78
2022/07/09 00:52:29;;;;;;;52.47;49.65;;;;;;;26.29;38.10;102730.72;4957306;28;20090;-77
2022/07/09 00:54:55;;;;;;;56.47;53.47;;;;;;;26.25;38.25;102733.25;4955619;28;20431;-76
2022/07/09 00:57:22;;;;;;;53.53;50.60;;;;;;;26.23;38.32;102732.75;4955696;28;20112;-77
2022/07/09 00:59:48;;;;;;;54.58;51.47;;;;;;;26.21;38.20;102728.66;4955610;28;20098;-77
2022/07/09 01:02:13;;;;;;;54.92;51.30;;;;;;;26.17;38.46;102731.19;4955376;28;20042;-76
2022/07/09 01:04:39;;;;;;;51.30;48.50;;;;;;;26.16;38.28;102725.94;4955155;28;20035;-77
2022/07/09 01:07:05;;;;;;;52.25;49.33;;;;;;;26.11;38.20;102729.63;4954704;29;20050;-77
2022/07/09 01:09:30;;;;;;;54.10;51.10;;;;;;;26.08;38.45;102717.19;4970172;28;20400;-76
2022/07/09 01:11:57;;;;;;;54.55;51.35;;;;;;;26.06;38.05;102718.63;4955047;28;20031;-75
2022/07/09 01:14:22;;;;;;;53.95;50.92;;;;;;;26.03;38.65;102711.75;4959370;28;20114;-76
2022/07/09 01:16:57;;;;;;;52.92;49.83;;;;;;;26.01;38.40;102708.44;4974460;28;20455;-76
2022/07/09 01:19:23;;;;;;;52.90;49.38;;;;;;;25.97;38.57;102712.13;4959041;28;20038;-76
2022/07/09 01:21:48;;;;;;;55.90;52.50;;;;;;;25.94;38.64;102705.22;4973661;28;20388;-76
2022/07/09 01:24:13;;;;;;;54.38;50.92;;;;;;;25.92;38.74;102704.69;4958057;29;20539;-77
2022/07/09 01:26:39;;;;;;;53.92;50.88;;;;;;;25.88;38.70;102695.38;4959050;28;20468;-77
2022/07/09 01:29:04;;;;;;;53.38;50.28;;;;;;;25.85;38.37;102699.53;4957932;29;20039;-76
2022/07/09 01:31:30;;;;;;;52.72;49.78;;;;;;;25.83;38.65;102695.38;4959216;28;20059;-76
2022/07/09 01:33:55;;;;;;;52.85;49.92;;;;;;;25.79;38.39;102695.16;4958716;28;20062;-76
2022/07/09 01:36:21;;;;;;;54.03;50.50;;;;;;;25.76;38.47;102689.41;4959429;28;20063;-76
2022/07/09 01:38:47;;;;;;;53.67;50.45;;;;;;;25.74;38.76;102692.47;4958950;28;20454;-76
2022/07/09 01:41:12;;;;;;;53.95;50.08;;;;;;;25.71;38.84;102683.97;4958758;28;20039;-77
2022/07/09 01:43:37;;;;;;;53.38;50.28;;;;;;;25.68;38.54;102690.91;4958115;28;20031;-77
2022/07/09 01:46:03;;;;;;;51.15;48.15;;;;;;;25.66;38.56;102690.38;4972786;28;20109;-77
2022/07/09 01:48:29;;;;;;;53.13;50.13;;;;;;;25.62;38.79;102683.78;4958132;28;20041;-76
2022/07/09 01:50:54;;;;;;;50.05;47.15;;;;;;;25.59;39.13;102679.66;4957320;29;20049;-78
2022/07/09 01:53:20;;;;;;;56.45;53.30;;;;;;;25.57;39.21;102675.56;4957741;28;20114;-77
2022/07/09 01:55:45;;;;;;;52.53;49.42;;;;;;;25.54;38.91;102681.69;4957687;28;20090;-77
2022/07/09 01:58:11;;;;;;;51.40;48.40;;;;;;;25.52;39.24;102678.41;4972402;28;20031;-78
2022/07/09 02:00:36;;;;;;;54.00;50.95;;;;;;;25.49;38.89;102674.28;4957447;28;20073;-77
2022/07/09 02:03:02;;;;;;;54.17;50.25;;;;;;;25.46;38.94;102680.41;4956257;29;20093;-76
2022/07/09 02:05:27;;;;;;;53.28;50.00;;;;;;;25.42;39.40;102671.03;4957094;29;20079;-78
2022/07/09 02:07:52;;;;;;;53.90;50.67;;;;;;;25.39;38.98;102675.22;4957439;28;20059;-76
2022/07/09 02:10:18;;;;;;;54.05;50.47;;;;;;;25.37;38.91;102666.41;4957507;28;20126;-77
2022/07/09 02:12:43;;;;;;;51.58;47.65;;;;;;;25.35;38.92;102667.81;4957096;28;20054;-77
2022/07/09 02:15:10;;;;;;;52.75;49.38;;;;;;;25.32;39.15;102666.47;4957539;28;20468;-77
2022/07/09 02:17:36;;;;;;;52.30;49.20;;;;;;;25.29;39.16;102658.78;4957188;28;20038;-77
2022/07/09 02:20:01;;;;;;;54.50;51.15;;;;;;;25.26;39.65;102665.72;4957507;28;20051;-77
2022/07/09 02:22:27;;;;;;;50.72;47.83;;;;;;;25.24;39.16;102667.13;4957185;28;20038;-78
2022/07/09 02:24:53;;;;;;;54.08;50.97;;;;;;;25.22;39.48;102672.13;4956270;28;20495;-76
2022/07/09 02:27:18;;;;;;;56.38;52.33;;;;;;;25.19;39.69;102672.72;4957029;28;20036;-77
2022/07/09 02:29:43;;;;;;;56.33;52.25;;;;;;;25.16;39.89;102678.81;4972355;28;20094;-77
2022/07/09 02:32:11;;;;;;;52.90;49.40;;;;;;;25.14;39.46;102672.75;4956966;28;20122;-77
2022/07/09 02:34:38;;;;;;;51.00;47.50;;;;;;;25.10;39.74;102671.69;4956981;28;20041;-77
2022/07/09 02:37:06;;;;;;;53.00;49.65;;;;;;;25.08;39.94;102679.47;4957264;28;20031;-76
2022/07/09 02:39:32;;;;;;;52.22;48.83;;;;;;;25.03;39.70;102661.81;4955416;29;20268;-77
2022/07/09 02:41:58;;;;;;;54.00;50.55;;;;;;;25.01;39.69;102668.75;4956792;28;20055;-77
2022/07/09 02:44:23;;;;;;;57.72;54.05;;;;;;;24.99;39.49;102662.69;4956868;28;20376;-77
2022/07/09 02:46:49;;;;;;;51.70;48.38;;;;;;;24.95;40.02;102656.94;4956685;28;20082;-76
2022/07/09 02:49:14;;;;;;;53.83;50.53;;;;;;;24.93;39.82;102664.72;4956587;28;20043;-77
2022/07/09 02:51:40;;;;;;;56.63;52.78;;;;;;;24.92;40.13;102667.75;4971447;28;20056;-78
2022/07/09 02:54:05;;;;;;;52.40;49.20;;;;;;;24.89;39.83;102660.88;4972179;28;20031;-77
2022/07/09 02:56:31;;;;;;;52.30;48.72;;;;;;;24.86;40.02;102661.47;4956503;28;20539;-78
2022/07/09 02:58:56;;;;;;;52.55;49.25;;;;;;;24.83;39.75;102656.53;4971270;28;20032;-77
2022/07/09 03:01:22;;;;;;;53.92;50.33;;;;;;;24.80;39.95;102651.59;4956141;28;20039;-78
2022/07/09 03:03:47;;;;;;;52.03;48.60;;;;;;;24.78;39.89;102648.28;4956207;28;20038;-77
2022/07/09 03:06:13;;;;;;;54.80;50.80;;;;;;;24.74;40.21;102647.22;4956359;28;20467;-78
2022/07/09 03:08:39;;;;;;;53.35;49.75;;;;;;;24.71;40.11;102648.63;4970822;28;20580;-77
2022/07/09 03:11:06;;;;;;;52.08;48.25;;;;;;;24.70;39.91;102641.47;4955181;29;20391;-77
2022/07/09 03:13:35;;;;;;;51.50;47.95;;;;;;;24.66;40.17;102643.16;4956319;28;20539;-78
2022/07/09 03:16:01;;;;;;;54.33;50.60;;;;;;;24.65;40.48;102646.22;4956290;28;20055;-78
2022/07/09 03:18:27;;;;;;;54.05;50.30;;;;;;;24.61;40.10;102643.22;4956117;28;20035;-78
2022/07/09 03:20:52;;;;;;;51.05;47.92;;;;;;;24.58;40.28;102646.56;4956443;28;20039;-77
2022/07/09 03:23:17;;;;;;;53.80;49.70;;;;;;;24.57;40.40;102644.94;4954897;29;20086;-76
2022/07/09 03:25:43;;;;;;;52.22;48.50;;;;;;;24.54;40.18;102639.97;4954862;29;20033;-77
2022/07/09 03:28:09;;;;;;;51.80;48.25;;;;;;;24.52;40.35;102650.47;4956034;28;20118;-78
2022/07/09 03:30:35;;;;;;;51.97;48.47;;;;;;;24.49;40.32;102646.34;4970711;28;20387;-77
2022/07/09 03:33:00;;;;;;;49.63;46.25;;;;;;;24.47;40.50;102653.28;4955995;28;20031;-77
2022/07/09 03:35:26;;;;;;;52.53;48.63;;;;;;;24.43;40.72;102653.03;4954284;28;20035;-76
2022/07/09 03:37:51;;;;;;;51.25;47.85;;;;;;;24.41;40.87;102653.31;4956070;28;20031;-77
2022/07/09 03:40:16;;;;;;;52.25;48.97;;;;;;;24.38;40.54;102645.59;4956064;28;20031;-77
2022/07/09 03:42:42;;;;;;;51.35;47.85;;;;;;;24.36;40.79;102647.84;4955532;28;20046;-77
2022/07/09 03:45:07;;;;;;;51.63;48.22;;;;;;;24.34;40.76;102658.38;4955739;28;20527;-77
2022/07/09 03:47:33;;;;;;;50.60;47.00;;;;;;;24.32;40.63;102648.72;4954704;28;20122;-76
2022/07/09 03:49:58;;;;;;;49.53;46.38;;;;;;;24.29;40.64;102650.13;4954569;29;20468;-78
2022/07/09 03:52:24;;;;;;;52.30;48.85;;;;;;;24.27;40.94;102644.06;4971073;28;20039;-78
2022/07/09 03:54:49;;;;;;;50.50;47.00;;;;;;;24.25;40.91;102648.22;4956169;28;20452;-77
2022/07/09 03:57:14;;;;;;;53.30;49.15;;;;;;;24.23;40.68;102637.47;4955571;28;20365;-77
2022/07/09 03:59:40;;;;;;;51.63;47.63;;;;;;;24.21;40.60;102644.38;4955487;28;20047;-77
2022/07/09 04:02:05;;;;;;;52.08;48.30;;;;;;;24.18;40.87;102641.09;4970029;28;20396;-78
2022/07/09 04:04:31;;;;;;;51.88;48.33;;;;;;;24.16;41.14;102636.97;4955472;28;20066;-78
2022/07/09 04:06:56;;;;;;;50.80;47.30;;;;;;;24.14;40.78;102634.50;4955469;28;20126;-77
2022/07/09 04:09:22;;;;;;;51.40;47.97;;;;;;;24.11;41.03;102635.06;4955181;28;20202;-77
2022/07/09 04:11:47;;;;;;;49.80;46.42;;;;;;;24.08;41.37;102624.59;4955452;28;20070;-76
2022/07/09 04:14:14;;;;;;;53.00;49.03;;;;;;;24.06;41.46;102620.50;4955408;28;20114;-76
2022/07/09 04:16:40;;;;;;;47.22;44.00;;;;;;;24.05;41.04;102618.84;4955234;28;20027;-76
2022/07/09 04:19:05;;;;;;;51.13;47.55;;;;;;;24.03;41.29;102626.59;4970133;28;20256;-76
2022/07/09 04:21:30;;;;;;;50.00;46.65;;;;;;;24.00;41.40;102625.22;4969755;28;20503;-76
2022/07/09 04:23:56;;;;;;;51.30;47.53;;;;;;;23.98;41.03;102628.28;4955363;28;20106;-76
2022/07/09 04:26:21;;;;;;;49.83;46.10;;;;;;;23.97;40.87;102623.06;4955212;28;20063;-75
2022/07/09 04:28:47;;;;;;;49.95;46.42;;;;;;;23.94;41.39;102621.69;4955217;28;20043;-76
2022/07/09 04:31:13;;;;;;;48.92;45.53;;;;;;;23.93;41.27;102627.50;4955205;28;20039;-76
2022/07/09 04:33:38;;;;;;;50.97;47.28;;;;;;;23.89;41.38;102624.50;4955238;28;20060;-76
2022/07/09 04:36:04;;;;;;;50.80;47.10;;;;;;;23.88;41.18;102627.53;4953822;29;20110;-76
2022/07/09 04:38:30;;;;;;;52.42;48.85;;;;;;;23.86;41.31;102627.81;4955042;28;20499;-75
2022/07/09 04:40:56;;;;;;;46.55;43.47;;;;;;;23.85;41.61;102630.88;4955290;28;20042;-76
2022/07/09 04:43:21;;;;;;;50.90;47.38;;;;;;;23.83;41.61;102633.91;4955665;28;20035;-76
2022/07/09 04:45:47;;;;;;;49.58;46.08;;;;;;;23.81;41.79;102625.09;4954862;28;20118;-75
2022/07/09 04:48:12;;;;;;;50.13;46.67;;;;;;;23.78;41.39;102624.84;4958564;28;20357;-75
2022/07/09 04:50:37;;;;;;;50.60;46.95;;;;;;;23.77;41.59;102623.22;4958522;28;20039;-76
2022/07/09 04:53:03;;;;;;;50.28;46.67;;;;;;;23.75;41.79;102620.72;4958920;28;20060;-75
2022/07/09 04:55:28;;;;;;;50.25;46.60;;;;;;;23.73;41.48;102618.25;4957368;29;20447;-76
2022/07/09 04:57:53;;;;;;;49.10;45.70;;;;;;;23.72;41.99;102616.59;4957741;29;20472;-76
2022/07/09 05:00:19;;;;;;;49.22;45.97;;;;;;;23.70;41.84;102617.97;4958753;28;20039;-76
2022/07/09 05:02:44;;;;;;;48.67;45.20;;;;;;;23.68;41.75;102609.97;4973108;28;20043;-76
2022/07/09 05:05:11;;;;;;;49.03;45.63;;;;;;;23.67;41.58;102613.03;4959120;28;20045;-76
2022/07/09 05:07:36;;;;;;;50.63;46.95;;;;;;;23.65;41.74;102609.72;4957417;28;20032;-76
2022/07/09 05:10:03;;;;;;;49.30;45.95;;;;;;;23.64;42.06;102613.63;4957367;29;20043;-76
2022/07/09 05:12:31;;;;;;;49.85;45.72;;;;;;;23.62;42.27;102619.41;4958346;28;20032;-76
2022/07/09 05:14:57;;;;;;;;;;;;;;;23.59;41.56;102611.72;4959447;28;20077;-76
2022/07/09 05:17:23;;;;;;;48.15;44.95;;;;;;;23.57;41.96;102616.69;4958278;29;19923;-76
2022/07/09 05:19:48;;;;;;;47.08;43.90;;;;;;;23.56;42.18;102615.00;4958020;28;20031;-76
2022/07/09 05:22:14;;;;;;;50.38;46.78;;;;;;;23.54;42.13;102614.50;4973212;28;20464;-76
2022/07/09 05:24:40;;;;;;;49.10;45.58;;;;;;;23.54;42.01;102620.00;4956972;28;20035;-76
2022/07/09 05:27:06;;;;;;;47.28;43.97;;;;;;;23.51;41.97;102613.13;4958752;28;20039;-76
2022/07/09 05:29:32;;;;;;;48.58;45.35;;;;;;;23.50;42.45;102603.19;4958222;28;20122;-76
2022/07/09 05:31:57;;;;;;;48.33;45.00;;;;;;;23.49;42.34;102612.59;4958517;28;20169;-76
2022/07/09 05:34:23;;;;;;;50.03;46.38;;;;;;;23.48;41.96;102608.16;4958113;28;20357;-75
2022/07/09 05:36:48;;;;;;;48.13;44.92;;;;;;;23.45;42.70;102605.97;4956600;29;20163;-75
2022/07/09 05:39:14;;;;;;;47.60;43.40;;;;;;;23.45;42.17;102603.22;4958192;28;20031;-75
2022/07/09 05:41:39;;;;;;;51.17;47.50;;;;;;;23.44;42.40;102603.53;4957879;28;20035;-75
2022/07/09 05:44:05;;;;;;;45.92;42.83;;;;;;;23.43;42.50;102605.44;4957949;28;20089;-76
2022/07/09 05:46:30;;;;;;;48.22;44.70;;;;;;;23.42;42.37;102597.47;4956704;29;20038;-76
2022/07/09 05:48:56;;;;;;;50.05;46.05;;;;;;;23.41;42.76;102593.88;4956942;29;20062;-76
2022/07/09 05:51:22;;;;;;;46.13;43.13;;;;;;;23.40;42.38;102594.16;4957528;28;20031;-78
2022/07/09 05:53:47;;;;;;;48.30;44.95;;;;;;;23.39;42.79;102604.38;4958275;28;20045;-78
2022/07/09 05:56:12;;;;;;;49.40;45.95;;;;;;;23.38;42.75;102604.66;4958140;28;20027;-77
2022/07/09 05:58:38;;;;;;;47.28;43.88;;;;;;;23.38;42.34;102599.94;4957944;28;20424;-77
2022/07/09 06:01:05;;;;;;;48.63;45.08;;;;;;;23.38;43.19;102601.91;4957288;28;20126;-76
2022/07/09 06:03:30;;;;;;;48.88;45.15;;;;;;;23.37;42.69;102605.78;4957626;28;20033;-77
2022/07/09 06:05:56;;;;;;;46.60;43.70;;;;;;;23.38;42.94;102601.91;4972357;28;20031;-77
2022/07/09 06:08:21;;;;;;;44.95;42.15;;;;;;;23.36;42.91;102602.19;4957576;28;20043;-77
2022/07/09 06:10:46;;;;;;;48.13;44.40;;;;;;;23.36;42.63;102607.72;4956786;29;20070;-78
2022/07/09 06:13:12;;;;;;;43.70;40.83;;;;;;;23.36;43.07;102617.88;4957333;28;20035;-78
2022/07/09 06:15:37;;;;;;;46.40;42.92;;;;;;;23.35;43.25;102614.31;4956762;29;20035;-78
2022/07/09 06:18:03;;;;;;;44.90;41.92;;;;;;;23.34;42.64;102609.91;4957538;28;20468;-79
2022/07/09 06:20:28;;;;;;;45.30;42.03;;;;;;;23.33;43.19;102611.84;4957043;28;20039;-79
2022/07/09 06:22:53;;;;;;;50.08;46.67;;;;;;;23.33;43.05;102611.84;4956254;29;20035;-78
2022/07/09 06:25:19;;;;;;;45.85;42.35;;;;;;;23.31;43.01;102622.34;4956011;29;20498;-76
2022/07/09 06:27:44;;;;;;;44.45;41.80;;;;;;;23.30;43.07;102626.19;4957048;28;20042;-79
2022/07/09 06:30:10;;;;;;;45.10;42.03;;;;;;;23.31;42.97;102629.78;4972464;28;20380;-79
2022/07/09 06:32:35;;;;;;;44.75;41.72;;;;;;;23.33;43.17;102638.59;4957063;28;20452;-79
2022/07/09 06:35:02;;;;;;;46.85;43.50;;;;;;;23.32;42.90;102623.97;4957481;28;20086;-79
2022/07/09 06:37:28;;;;;;;45.75;42.90;;;;;;;23.30;43.06;102626.19;4956894;28;20043;-79
2022/07/09 06:39:55;;;;;;;48.15;44.97;;;;;;;23.30;43.17;102623.44;4956870;28;20042;-77
2022/07/09 06:42:21;;;;;;;43.53;40.83;;;;;;;23.30;43.46;102623.44;4956851;28;20057;-79
2022/07/09 06:44:46;;;;;;;46.70;43.63;;;;;;;23.30;43.64;102637.22;4955700;28;20368;-78
2022/07/09 06:47:12;;;;;;;46.47;43.17;;;;;;;23.32;43.51;102629.50;4956808;28;20487;-78
2022/07/09 06:49:37;;;;;;;45.95;43.17;;;;;;;23.30;43.36;102630.88;4956880;28;20122;-78
2022/07/09 06:52:03;;;;;;;45.60;42.65;;;;;;;23.31;43.50;102616.81;4956625;28;20407;-77
2022/07/09 06:54:29;;;;;;;43.95;41.35;;;;;;;23.30;43.51;102611.59;4955195;28;20035;-79
2022/07/09 06:56:56;;;;;;;45.13;42.22;;;;;;;23.31;43.84;102616.00;4956566;28;20039;-78
2022/07/09 06:59:22;;;;;;;45.03;41.97;;;;;;;23.32;43.60;102626.75;4955424;29;20027;-78
2022/07/09 07:01:48;;;;;;;49.08;45.70;;;;;;;23.33;44.31;102631.16;4956508;28;20499;-78
2022/07/09 07:04:14;;;;;;;49.80;46.30;;;;;;;23.35;44.62;102627.28;4956956;28;20043;-79
2022/07/09 07:06:41;;;;;;;48.75;45.25;;;;;;;23.36;44.87;102610.47;4956442;28;20074;-79
2022/07/09 07:09:06;;;;;;;51.47;47.78;;;;;;;23.37;45.25;102620.38;4955521;28;20056;-78
2022/07/09 07:11:31;;;;;;;47.78;44.55;;;;;;;23.38;45.44;102618.44;4956097;28;20057;-79
2022/07/09 07:13:57;;;;;;;46.92;43.83;;;;;;;23.39;45.04;102622.88;4956513;28;20027;-78
2022/07/09 07:16:22;;;;;;;47.88;44.67;;;;;;;23.40;44.78;102622.56;4956297;28;20042;-79
2022/07/09 07:18:47;;;;;;;45.35;42.70;;;;;;;23.41;44.25;102617.88;4955874;28;20042;-78
2022/07/09 07:21:13;;;;;;;45.80;42.90;;;;;;;23.42;44.31;102619.53;4956897;28;20039;-80
2022/07/09 07:23:38;;;;;;;47.65;44.53;;;;;;;23.44;44.07;102620.06;4971893;28;20086;-80
2022/07/09 07:26:04;;;;;;;43.83;41.20;;;;;;;23.46;44.77;102620.59;4957405;28;20031;-78
2022/07/09 07:28:29;;;;;;;44.80;41.85;;;;;;;23.48;44.63;102632.16;4957286;28;20039;-79
2022/07/09 07:30:54;;;;;;;42.72;40.22;;;;;;;23.49;44.28;102623.63;4954758;29;20114;-80
2022/07/09 07:33:20;;;;;;;48.53;45.50;;;;;;;23.52;44.68;102611.19;4970833;28;20035;-79
2022/07/09 07:35:46;;;;;;;44.13;41.65;;;;;;;23.54;44.43;102611.75;4970720;28;20069;-78
2022/07/09 07:38:11;;;;;;;45.42;42.72;;;;;;;23.58;44.39;102621.06;4955802;28;20420;-79
2022/07/09 07:40:37;;;;;;;46.53;43.63;;;;;;;23.60;44.80;102629.91;4954993;28;20090;-81
2022/07/09 07:43:05;;;;;;;46.10;43.28;;;;;;;23.61;44.57;102617.78;4954333;29;20461;-79
2022/07/09 07:45:31;;;;;;;45.42;42.63;;;;;;;23.64;44.67;102622.72;4956047;28;20035;-78
2022/07/09 07:47:57;;;;;;;48.42;45.47;;;;;;;23.66;44.52;102620.50;4954641;29;20479;-80
2022/07/09 07:50:23;;;;;;;44.80;41.80;;;;;;;23.69;44.58;102622.69;4970855;28;20074;-80
2022/07/09 07:52:49;;;;;;;46.08;43.25;;;;;;;23.73;44.82;102620.19;4956333;28;20079;-79
2022/07/09 07:55:15;;;;;;;48.15;45.35;;;;;;;23.74;44.61;102625.44;4970516;28;20098;-80
2022/07/09 07:57:40;;;;;;;45.33;42.78;;;;;;;23.77;44.20;102624.03;4955781;28;20428;-81
2022/07/09 08:00:07;;;;;;;47.08;44.30;;;;;;;23.79;44.32;102626.47;4955874;28;20031;-80
2022/07/09 08:02:33;;;;;;;44.25;41.60;;;;;;;23.82;44.25;102623.19;4954511;29;20038;-79
2022/07/09 08:04:58;;;;;;;47.85;44.58;;;;;;;23.85;44.36;102630.88;4955619;28;20077;-79
2022/07/09 08:07:23;;;;;;;44.90;42.30;;;;;;;23.87;44.63;102631.41;4970125;28;20373;-80
2022/07/09 08:09:49;;;;;;;45.17;42.47;;;;;;;23.90;44.42;102634.41;4956052;28;20134;-75
2022/07/09 08:12:14;;;;;;;46.42;43.30;;;;;;;23.92;44.30;102631.38;4955836;28;20395;-80
2022/07/09 08:14:40;;;;;;;44.33;41.33;;;;;;;23.93;44.19;102620.03;4970287;28;20042;-79
2022/07/09 08:17:05;;;;;;;46.83;44.03;;;;;;;23.96;44.02;102607.59;4955482;28;20035;-78
2022/07/09 08:19:31;;;;;;;48.40;45.05;;;;;;;23.99;44.34;102609.78;4970124;28;20039;-79
2022/07/09 08:21:56;;;;;;;49.03;45.80;;;;;;;24.02;45.05;102608.41;4956479;28;20433;-78
2022/07/09 08:24:22;;;;;;;50.30;46.80;;;;;;;24.04;44.76;102609.75;4959470;28;20051;-77
2022/07/09 08:26:47;;;;;;;51.38;47.83;;;;;;;24.06;45.25;102604.75;4960116;28;20042;-80
2022/07/09 08:29:13;;;;;;;51.78;48.30;;;;;;;24.09;45.51;102609.72;4958418;29;20039;-78
2022/07/09 08:31:38;;;;;;;46.38;43.78;;;;;;;24.11;45.40;102601.94;4959256;28;20066;-77
2022/07/09 08:34:03;;;;;;;47.65;44.67;;;;;;;24.15;45.03;102604.97;4959224;28;20035;-80
2022/07/09 08:36:29;;;;;;;49.58;46.28;;;;;;;24.17;44.53;102589.75;4959197;28;20031;-79
2022/07/09 08:38:54;;;;;;;51.95;48.55;;;;;;;24.20;45.33;102582.81;4957901;29;20114;-79
2022/07/09 08:41:22;;;;;;;47.65;44.80;;;;;;;24.24;45.33;102594.94;4958070;29;20031;-78
2022/07/09 08:43:52;;;;;;;47.50;44.75;;;;;;;24.27;45.33;102585.25;4959034;28;20035;-79
2022/07/09 08:46:18;;;;;;;50.92;47.65;;;;;;;24.29;45.09;102585.75;4959004;28;20046;-79
2022/07/09 08:48:44;;;;;;;48.03;45.13;;;;;;;24.32;45.06;102586.03;4958067;29;20090;-81
2022/07/09 08:51:10;;;;;;;50.13;47.10;;;;;;;24.35;45.25;102579.09;4957694;29;20032;-79
2022/07/09 08:53:44;;;;;;;49.90;47.00;;;;;;;24.37;44.90;102577.69;4958553;28;20098;-79
2022/07/09 08:56:10;;;;;;;49.47;46.17;;;;;;;24.41;45.16;102588.97;4958913;28;20031;-79
2022/07/09 08:58:37;;;;;;;48.67;45.85;;;;;;;24.44;45.29;102593.91;4957362;29;20031;-79
2022/07/09 09:01:04;;;;;;;47.97;45.28;;;;;;;24.46;45.10;102594.47;4958280;28;20047;-78
2022/07/09 09:03:30;;;;;;;51.60;48.33;;;;;;;24.49;44.58;102591.09;4973451;28;20043;-78
2022/07/09 09:06:02;;;;;;;48.08;45.20;;;;;;;24.52;44.64;102576.72;4958390;28;20480;-78
2022/07/09 09:08:27;;;;;;;48.65;45.85;;;;;;;24.56;45.01;102575.00;4958163;28;20106;-78
2022/07/09 09:10:53;;;;;;;49.00;46.25;;;;;;;24.59;44.97;102573.59;4958816;28;20043;-78
2022/07/09 09:13:18;;;;;;;49.25;45.83;;;;;;;24.60;44.54;102587.13;4973619;28;20039;-79
2022/07/09 09:15:44;;;;;;;49.10;46.22;;;;;;;24.66;44.64;102587.06;4958236;28;20086;-78
2022/07/09 09:18:10;;;;;;;50.00;46.97;;;;;;;24.68;44.65;102584.84;4957990;28;20039;-77
2022/07/09 09:20:37;;;;;;;49.35;46.10;;;;;;;24.71;44.67;102579.53;4958104;28;20534;-78
2022/07/09 09:23:04;;;;;;;50.13;47.15;;;;;;;24.73;44.66;102579.25;4957751;28;20035;-78
2022/07/09 09:25:30;;;;;;;48.78;46.00;;;;;;;24.74;44.49;102578.94;4958044;28;20543;-76
2022/07/09 09:27:58;;;;;;;49.35;46.47;;;;;;;24.80;45.11;102582.50;4972563;28;20039;-78
2022/07/09 09:30:25;;;;;;;51.13;48.28;;;;;;;24.81;45.10;102584.94;4957750;28;20063;-77
2022/07/09 09:32:59;;;;;;;50.63;47.65;;;;;;;24.85;45.00;102582.44;4956190;28;20062;-77
2022/07/09 09:35:44;;;;;;;52.22;49.15;;;;;;;24.87;44.49;102580.19;4957852;28;20548;-76
2022/07/09 09:38:10;;;;;;;49.92;46.92;;;;;;;24.89;44.64;102579.91;4956862;29;20034;-77
2022/07/09 09:40:36;;;;;;;49.58;46.80;;;;;;;24.92;45.10;102580.16;4972719;28;20024;-78
2022/07/09 09:43:02;;;;;;;49.15;46.08;;;;;;;24.93;44.76;102581.78;4958172;28;20376;-78
2022/07/09 09:45:28;;;;;;;46.63;44.08;;;;;;;24.96;45.00;102585.88;4957761;28;20184;-77
2022/07/09 09:47:54;;;;;;;50.42;47.65;;;;;;;24.97;44.93;102590.28;4957515;28;20059;-76
2022/07/09 09:50:25;;;;;;;47.10;44.30;;;;;;;25.00;44.92;102584.19;4957342;28;20538;-78
2022/07/09 09:52:52;;;;;;;51.28;48.45;;;;;;;25.01;44.44;102577.53;4956707;28;20491;-78
2022/07/09 09:55:20;;;;;;;48.22;45.58;;;;;;;25.02;44.81;102582.78;4959022;28;20050;-78
2022/07/09 09:57:46;;;;;;;46.43;43.93;;;;;;;25.03;44.83;102595.47;4960092;28;20035;-78
2022/07/09 10:00:13;;;;;;;47.75;44.95;;;;;;;25.04;44.56;102596.28;4959407;28;20044;-76
2022/07/09 10:02:44;;;;;;;47.42;44.70;;;;;;;25.07;44.72;102595.69;4959313;28;20499;-77
2022/07/09 10:05:10;;;;;;;48.38;45.88;;;;;;;25.08;44.49;102602.06;4960194;28;20031;-78
2022/07/09 10:07:36;;;;;;;47.67;45.00;;;;;;;25.09;44.44;102598.97;4960638;28;20035;-79
2022/07/09 10:10:02;;;;;;;45.22;42.75;;;;;;;25.12;44.10;102603.09;4963572;28;20079;-76
2022/07/09 10:12:30;;;;;;;47.35;44.85;;;;;;;25.13;44.61;102602.00;4962519;28;20535;-77
2022/07/09 10:14:56;;;;;;;47.28;44.88;;;;;;;25.16;44.71;102598.63;4965360;28;20032;-77
2022/07/09 10:17:24;;;;;;;47.72;44.80;;;;;;;25.17;44.43;102598.34;4963010;28;20041;-77
2022/07/09 10:19:55;;;;;;;45.60;43.30;;;;;;;25.19;44.16;102592.53;4961063;28;20081;-77
2022/07/09 10:22:37;;;;;;;48.28;45.67;;;;;;;25.19;44.41;102590.59;4959860;28;20487;-78
2022/07/09 10:25:04;;;;;;;45.83;43.08;;;;;;;25.20;44.10;102583.09;4957755;28;20031;-76
2022/07/09 10:27:40;;;;;;;49.47;46.88;;;;;;;25.21;44.62;102595.81;4958929;28;20023;-78
2022/07/09 10:30:06;;;;;;;48.28;45.88;;;;;;;25.21;44.77;102593.88;4959748;28;20085;-75
2022/07/09 10:32:32;;;;;;;46.60;43.83;;;;;;;25.23;44.60;102593.59;4974939;28;20041;-78
2022/07/09 10:35:05;;;;;;;46.50;44.08;;;;;;;25.24;44.45;102586.94;4964604;28;20035;-77
2022/07/09 10:37:38;;;;;;;48.78;46.38;;;;;;;25.27;44.68;102583.56;4980645;28;20031;-78
2022/07/09 10:40:11;;;;;;;47.53;45.10;;;;;;;25.29;44.68;102567.50;4976596;28;20189;-81
2022/07/09 10:42:37;;;;;;;49.25;46.80;;;;;;;25.30;44.43;102569.16;4958060;28;20057;-71
2022/07/09 10:45:14;;;;;;;47.40;44.28;;;;;;;25.31;44.66;102576.31;4956973;28;20110;-76
2022/07/09 10:47:39;;;;;;;45.70;43.30;;;;;;;25.34;44.65;102578.47;4972211;28;20026;-76
2022/07/09 10:50:06;;;;;;;47.33;44.95;;;;;;;25.36;44.66;102578.19;4956587;29;20175;-76
2022/07/09 10:52:31;;;;;;;45.55;43.35;;;;;;;25.38;44.70;102579.53;4958108;28;20464;-76
2022/07/09 10:54:56;;;;;;;49.33;46.83;;;;;;;25.41;44.45;102583.66;4956974;28;20122;-76
2022/07/09 10:57:22;;;;;;;48.20;45.47;;;;;;;25.44;44.30;102589.41;4957005;28;20400;-76
2022/07/09 10:59:47;;;;;;;46.10;43.70;;;;;;;25.46;44.33;102595.47;4956701;28;20053;-75
2022/07/09 11:02:22;;;;;;;47.80;45.50;;;;;;;25.48;43.99;102587.69;4957112;28;20031;-75
2022/07/09 11:04:52;;;;;;;47.70;45.30;;;;;;;25.51;43.80;102585.44;4956556;28;20399;-76